createdAt,value
2017-04-29T04:00:50.530Z,96
2017-04-29T04:01:16.014Z,100
2017-04-29T04:01:41.485Z,108
2017-04-29T04:02:06.952Z,112
2017-04-29T04:02:32.414Z,116
2017-04-29T04:02:57.863Z,116
2017-04-29T04:03:23.358Z,124
2017-04-29T04:03:48.821Z,128
2017-04-29T04:04:14.238Z,136
2017-04-29T04:04:39.715Z,140
2017-04-29T04:05:05.141Z,144
2017-04-29T04:05:30.642Z,148
2017-04-29T04:05:56.138Z,152
2017-04-29T04:06:21.540Z,160
2017-04-29T04:06:47.016Z,164
2017-04-29T04:07:12.544Z,172
2017-04-29T04:07:37.976Z,176
2017-04-29T04:08:03.456Z,184
2017-04-29T04:08:28.926Z,192
2017-04-29T04:08:54.365Z,196
2017-04-29T04:09:19.923Z,200
2017-04-29T04:09:45.337Z,208
2017-04-29T04:10:10.933Z,216
2017-04-29T04:10:36.396Z,220
2017-04-29T04:11:01.885Z,228
2017-04-29T04:11:27.337Z,236
2017-04-29T04:11:52.789Z,244
2017-04-29T04:12:18.262Z,248
2017-04-29T04:12:43.752Z,256
2017-04-29T04:13:09.213Z,264
2017-04-29T04:13:34.726Z,268
2017-04-29T04:14:00.131Z,276
2017-04-29T04:14:25.615Z,284
2017-04-29T04:14:51.086Z,292
2017-04-29T04:15:16.562Z,300
2017-04-29T04:15:42.023Z,308
2017-04-29T04:16:07.517Z,320
2017-04-29T04:16:32.978Z,324
2017-04-29T04:16:58.464Z,336
2017-04-29T04:17:23.912Z,340
2017-04-29T04:17:49.363Z,348
2017-04-29T04:18:14.836Z,356
2017-04-29T04:18:40.335Z,364
2017-04-29T04:19:05.800Z,368
2017-04-29T04:19:31.273Z,380
2017-04-29T04:19:56.724Z,388
2017-04-29T04:20:22.189Z,400
2017-04-29T04:20:47.661Z,408
2017-04-29T04:21:13.116Z,416
2017-04-29T04:21:38.573Z,424
2017-04-29T04:22:04.046Z,432
2017-04-29T04:22:29.520Z,440
2017-04-29T04:22:54.994Z,448
2017-04-29T04:23:20.423Z,460
2017-04-29T04:23:45.904Z,468
2017-04-29T04:24:11.430Z,476
2017-04-29T04:24:36.900Z,488
2017-04-29T04:25:02.372Z,496
2017-04-29T04:25:27.827Z,512
2017-04-29T04:25:53.286Z,520
2017-04-29T04:26:18.796Z,532
2017-04-29T04:26:44.262Z,544
2017-04-29T04:27:09.726Z,548
2017-04-29T04:27:35.168Z,552
2017-04-29T04:28:00.647Z,556
2017-04-29T04:28:26.101Z,560
2017-04-29T04:28:51.579Z,564
2017-04-29T04:29:17.014Z,572
2017-04-29T04:29:42.488Z,584
2017-04-29T04:30:07.975Z,596
2017-04-29T04:30:33.424Z,612
2017-04-29T04:30:58.871Z,624
2017-04-29T04:31:24.342Z,632
2017-04-29T04:31:49.780Z,644
2017-04-29T04:32:15.208Z,648
2017-04-29T04:32:40.687Z,648
2017-04-29T04:33:06.133Z,648
2017-04-29T04:33:31.578Z,648
2017-04-29T04:33:57.063Z,648
2017-04-29T04:34:22.539Z,652
2017-04-29T04:34:48.012Z,664
2017-04-29T04:35:13.460Z,676
2017-04-29T04:35:38.966Z,692
2017-04-29T04:36:04.403Z,708
2017-04-29T04:36:29.848Z,728
2017-04-29T04:36:55.335Z,748
2017-04-29T04:37:20.788Z,760
2017-04-29T04:37:46.282Z,772
2017-04-29T04:38:11.692Z,788
2017-04-29T04:38:37.193Z,804
2017-04-29T04:39:02.710Z,816
2017-04-29T04:39:28.182Z,824
2017-04-29T04:39:53.624Z,836
2017-04-29T04:40:19.109Z,848
2017-04-29T04:40:44.515Z,852
2017-04-29T04:41:09.963Z,856
2017-04-29T04:41:35.446Z,864
2017-04-29T04:42:00.939Z,872
2017-04-29T04:42:26.382Z,892
2017-04-29T04:42:51.844Z,912
2017-04-29T04:43:17.282Z,936
2017-04-29T04:43:42.751Z,964
2017-04-29T04:44:08.196Z,988
2017-04-29T04:44:33.706Z,1008
2017-04-29T04:44:59.107Z,1028
2017-04-29T04:45:24.562Z,1048
2017-04-29T04:45:50.022Z,1068
2017-04-29T04:46:15.496Z,1080
2017-04-29T04:46:41.003Z,1096
2017-04-29T04:47:06.543Z,1116
2017-04-29T04:47:31.938Z,1144
2017-04-29T04:47:57.467Z,1164
2017-04-29T04:48:22.979Z,1180
2017-04-29T04:48:48.469Z,1192
2017-04-29T04:49:13.900Z,1204
2017-04-29T04:49:39.440Z,1208
2017-04-29T04:50:04.835Z,1208
2017-04-29T04:50:30.367Z,1208
2017-04-29T04:50:55.830Z,1200
2017-04-29T04:51:21.371Z,1196
2017-04-29T04:51:46.784Z,1196
2017-04-29T04:52:12.257Z,1204
2017-04-29T04:52:37.752Z,1216
2017-04-29T04:53:03.246Z,1236
2017-04-29T04:53:28.778Z,1260
2017-04-29T04:53:54.311Z,1284
2017-04-29T04:54:19.734Z,1304
2017-04-29T04:54:45.208Z,1324
2017-04-29T04:55:10.728Z,1344
2017-04-29T04:55:36.169Z,1368
2017-04-29T04:56:01.703Z,1396
2017-04-29T04:56:27.159Z,1424
2017-04-29T04:56:52.641Z,1440
2017-04-29T04:57:18.104Z,1448
2017-04-29T04:57:43.597Z,1464
2017-04-29T04:58:09.036Z,1464
2017-04-29T04:58:34.504Z,1460
2017-04-29T04:58:59.958Z,1456
2017-04-29T04:59:25.506Z,1464
2017-04-29T04:59:51.006Z,1484
2017-04-29T05:00:16.365Z,1516
2017-04-29T05:00:42.406Z,1548
2017-04-29T05:01:07.906Z,1576
2017-04-29T05:01:33.359Z,1600
2017-04-29T05:01:58.854Z,1612
2017-04-29T05:02:24.265Z,1628
2017-04-29T05:02:49.716Z,1644
2017-04-29T05:03:15.236Z,1660
2017-04-29T05:03:40.701Z,1676
2017-04-29T05:04:06.231Z,1692
2017-04-29T05:04:31.723Z,1708
2017-04-29T05:04:57.237Z,1728
2017-04-29T05:05:22.800Z,1744
2017-04-29T05:05:48.214Z,1772
2017-04-29T05:06:13.688Z,1804
2017-04-29T05:06:39.183Z,1840
2017-04-29T05:07:05.138Z,1876
2017-04-29T05:07:30.746Z,1908
2017-04-29T05:07:56.184Z,1932
2017-04-29T05:08:21.687Z,1940
2017-04-29T05:08:47.122Z,1948
2017-04-29T05:09:12.603Z,1964
2017-04-29T05:09:38.158Z,1984
2017-04-29T05:10:03.754Z,2004
2017-04-29T05:10:29.566Z,2028
2017-04-29T05:10:55.111Z,2056
2017-04-29T05:11:20.536Z,2076
2017-04-29T05:11:46.010Z,2096
2017-04-29T05:12:11.435Z,2116
2017-04-29T05:12:36.971Z,2136
2017-04-29T05:13:02.514Z,2144
2017-04-29T05:13:28.030Z,2144
2017-04-29T05:13:53.466Z,2152
2017-04-29T05:14:18.972Z,2156
2017-04-29T05:14:44.410Z,2172
2017-04-29T05:15:09.885Z,2192
2017-04-29T05:15:35.337Z,2228
2017-04-29T05:16:00.827Z,2256
2017-04-29T05:16:26.279Z,2284
2017-04-29T05:16:51.759Z,2324
2017-04-29T05:17:17.211Z,2360
2017-04-29T05:17:42.691Z,2384
2017-04-29T05:18:08.176Z,2376
2017-04-29T05:18:33.685Z,2380
2017-04-29T05:18:59.109Z,2380
2017-04-29T05:19:24.565Z,2372
2017-04-29T05:19:50.010Z,2372
2017-04-29T05:20:15.679Z,2392
2017-04-29T05:20:41.002Z,2412
2017-04-29T05:21:06.488Z,2448
2017-04-29T05:21:31.961Z,2500
2017-04-29T05:21:57.477Z,2548
2017-04-29T05:22:22.944Z,2584
2017-04-29T05:22:48.380Z,2604
2017-04-29T05:23:13.899Z,2608
2017-04-29T05:23:39.277Z,2628
2017-04-29T05:24:04.751Z,2672
2017-04-29T05:24:30.249Z,2700
2017-04-29T05:24:55.726Z,2728
2017-04-29T05:25:21.226Z,2752
2017-04-29T05:25:46.667Z,2752
2017-04-29T05:26:12.142Z,2752
2017-04-29T05:26:37.614Z,2740
2017-04-29T05:27:03.057Z,2736
2017-04-29T05:27:28.555Z,2748
2017-04-29T05:27:54.041Z,2768
2017-04-29T05:28:19.501Z,2780
2017-04-29T05:28:44.939Z,2788
2017-04-29T05:29:10.427Z,2788
2017-04-29T05:29:35.943Z,2808
2017-04-29T05:30:01.446Z,2824
2017-04-29T05:30:26.939Z,2852
2017-04-29T05:30:52.452Z,2876
2017-04-29T05:31:17.972Z,2904
2017-04-29T05:31:43.473Z,2940
2017-04-29T05:32:09.027Z,2988
2017-04-29T05:32:34.485Z,3036
2017-04-29T05:32:59.955Z,3084
2017-04-29T05:33:25.466Z,3144
2017-04-29T05:33:50.956Z,3208
2017-04-29T05:34:16.436Z,3264
2017-04-29T05:34:41.932Z,3296
2017-04-29T05:35:07.473Z,3332
2017-04-29T05:35:32.904Z,3384
2017-04-29T05:35:58.357Z,3448
2017-04-29T05:36:23.829Z,3508
2017-04-29T05:36:49.293Z,3576
2017-04-29T05:37:14.791Z,3648
2017-04-29T05:37:40.213Z,3704
2017-04-29T05:38:05.723Z,3736
2017-04-29T05:38:31.183Z,3788
2017-04-29T05:38:56.616Z,3872
2017-04-29T05:39:22.092Z,3952
2017-04-29T05:39:47.613Z,3960
2017-04-29T05:40:13.065Z,3976
2017-04-29T05:40:38.539Z,4024
2017-04-29T05:41:03.991Z,4056
2017-04-29T05:41:29.469Z,4084
2017-04-29T05:41:54.933Z,4136
2017-04-29T05:42:20.378Z,4204
2017-04-29T05:42:45.863Z,4264
2017-04-29T05:43:11.353Z,4284
2017-04-29T05:43:36.774Z,4288
2017-04-29T05:44:02.256Z,4336
2017-04-29T05:44:27.774Z,4356
2017-04-29T05:44:53.312Z,4332
2017-04-29T05:45:18.816Z,4324
2017-04-29T05:45:44.337Z,4348
2017-04-29T05:46:09.813Z,4364
2017-04-29T05:46:35.223Z,4372
2017-04-29T05:47:00.697Z,4392
2017-04-29T05:47:26.163Z,4436
2017-04-29T05:47:51.683Z,4464
2017-04-29T05:48:17.120Z,4476
2017-04-29T05:48:42.629Z,4476
2017-04-29T05:49:08.087Z,4516
2017-04-29T05:49:33.570Z,4576
2017-04-29T05:49:59.005Z,4620
2017-04-29T05:50:24.486Z,4648
2017-04-29T05:50:49.932Z,4696
2017-04-29T05:51:15.442Z,4740
2017-04-29T05:51:40.938Z,4764
2017-04-29T05:52:06.412Z,4788
2017-04-29T05:52:31.854Z,4808
2017-04-29T05:52:57.330Z,4784
2017-04-29T05:53:22.792Z,4736
2017-04-29T05:53:48.262Z,4720
2017-04-29T05:54:13.713Z,4764
2017-04-29T05:54:39.202Z,4844
2017-04-29T05:55:04.737Z,4928
2017-04-29T05:55:30.132Z,5020
2017-04-29T05:55:55.604Z,5108
2017-04-29T05:56:21.060Z,5172
2017-04-29T05:56:46.574Z,5216
2017-04-29T05:57:12.015Z,5240
2017-04-29T05:57:37.464Z,5252
2017-04-29T05:58:02.947Z,5252
2017-04-29T05:58:28.386Z,5248
2017-04-29T05:58:53.846Z,5260
2017-04-29T05:59:19.328Z,5268
2017-04-29T05:59:44.784Z,5260
2017-04-29T06:00:10.248Z,5256
2017-04-29T06:00:35.702Z,5252
2017-04-29T06:01:01.164Z,5236
2017-04-29T06:01:26.655Z,5232
2017-04-29T06:01:52.088Z,5260
2017-04-29T06:02:17.569Z,5348
2017-04-29T06:02:43.017Z,5416
2017-04-29T06:03:08.460Z,5496
2017-04-29T06:03:33.950Z,5568
2017-04-29T06:03:59.388Z,5616
2017-04-29T06:04:24.862Z,5652
2017-04-29T06:04:50.369Z,5700
2017-04-29T06:05:15.837Z,5744
2017-04-29T06:05:41.291Z,5760
2017-04-29T06:06:06.748Z,5752
2017-04-29T06:06:32.235Z,5764
2017-04-29T06:06:57.686Z,5752
2017-04-29T06:07:23.179Z,5704
2017-04-29T06:07:48.617Z,5664
2017-04-29T06:08:14.093Z,5660
2017-04-29T06:08:39.579Z,5664
2017-04-29T06:09:05.077Z,5688
2017-04-29T06:09:30.574Z,5700
2017-04-29T06:09:56.036Z,5744
2017-04-29T06:10:21.526Z,5804
2017-04-29T06:10:47.029Z,5844
2017-04-29T06:11:12.499Z,5832
2017-04-29T06:11:37.995Z,5848
2017-04-29T06:12:03.438Z,5832
2017-04-29T06:12:28.913Z,5848
2017-04-29T06:12:54.374Z,5880
2017-04-29T06:13:19.835Z,5944
2017-04-29T06:13:45.310Z,6056
2017-04-29T06:14:10.826Z,6100
2017-04-29T06:14:36.328Z,6096
2017-04-29T06:15:01.811Z,6084
2017-04-29T06:15:27.270Z,6136
2017-04-29T06:15:52.750Z,6244
2017-04-29T06:16:18.225Z,6364
2017-04-29T06:16:43.765Z,6528
2017-04-29T06:17:09.325Z,6644
2017-04-29T06:17:34.768Z,6692
2017-04-29T06:18:00.216Z,6656
2017-04-29T06:18:25.701Z,6636
2017-04-29T06:18:51.186Z,6616
2017-04-29T06:19:16.634Z,6632
2017-04-29T06:19:42.124Z,6660
2017-04-29T06:20:07.594Z,6692
2017-04-29T06:20:33.043Z,6784
2017-04-29T06:20:58.488Z,6856
2017-04-29T06:21:23.985Z,6880
2017-04-29T06:21:49.418Z,6908
2017-04-29T06:22:14.911Z,6948
2017-04-29T06:22:40.402Z,6984
2017-04-29T06:23:05.868Z,7012
2017-04-29T06:23:31.358Z,7044
2017-04-29T06:23:56.827Z,7092
2017-04-29T06:24:22.297Z,7068
2017-04-29T06:24:47.739Z,7012
2017-04-29T06:25:13.263Z,6948
2017-04-29T06:25:38.767Z,6908
2017-04-29T06:26:04.203Z,6908
2017-04-29T06:26:29.709Z,6888
2017-04-29T06:26:55.195Z,6900
2017-04-29T06:27:20.638Z,6956
2017-04-29T06:27:46.108Z,6984
2017-04-29T06:28:11.587Z,7004
2017-04-29T06:28:37.111Z,7020
2017-04-29T06:29:02.570Z,7020
2017-04-29T06:29:28.057Z,7004
2017-04-29T06:29:53.525Z,7008
2017-04-29T06:30:19.003Z,7024
2017-04-29T06:30:44.495Z,7076
2017-04-29T06:31:10.015Z,7132
2017-04-29T06:31:35.531Z,7188
2017-04-29T06:32:01.009Z,7216
2017-04-29T06:32:26.489Z,7244
2017-04-29T06:32:51.934Z,7308
2017-04-29T06:33:17.402Z,7392
2017-04-29T06:33:42.862Z,7440
2017-04-29T06:34:08.350Z,7484
2017-04-29T06:34:33.844Z,7520
2017-04-29T06:34:59.319Z,7540
2017-04-29T06:35:24.798Z,7568
2017-04-29T06:35:50.333Z,7588
2017-04-29T06:36:15.846Z,7588
2017-04-29T06:36:41.342Z,7612
2017-04-29T06:37:06.776Z,7640
2017-04-29T06:37:32.217Z,7668
2017-04-29T06:37:57.685Z,7704
2017-04-29T06:38:23.149Z,7748
2017-04-29T06:38:48.631Z,7812
2017-04-29T06:39:14.144Z,7888
2017-04-29T06:39:39.671Z,7932
2017-04-29T06:40:05.086Z,7976
2017-04-29T06:40:30.553Z,7984
2017-04-29T06:40:55.997Z,8004
2017-04-29T06:41:21.477Z,8068
2017-04-29T06:41:47.000Z,8132
2017-04-29T06:42:12.482Z,8152
2017-04-29T06:42:37.960Z,8184
2017-04-29T06:43:03.449Z,8184
2017-04-29T06:43:28.995Z,8168
2017-04-29T06:43:54.484Z,8192
2017-04-29T06:44:20.028Z,8204
2017-04-29T06:44:45.530Z,8248
2017-04-29T06:45:11.049Z,8284
2017-04-29T06:45:36.498Z,8264
2017-04-29T06:46:01.985Z,8236
2017-04-29T06:46:27.468Z,8244
2017-04-29T06:46:52.903Z,8256
2017-04-29T06:47:18.381Z,8236
2017-04-29T06:47:43.888Z,8232
2017-04-29T06:48:09.423Z,8196
2017-04-29T06:48:34.845Z,8168
2017-04-29T06:49:00.324Z,8124
2017-04-29T06:49:25.818Z,8084
2017-04-29T06:49:51.294Z,8032
2017-04-29T06:50:16.811Z,7980
2017-04-29T06:50:42.320Z,7920
2017-04-29T06:51:07.802Z,7872
2017-04-29T06:51:33.456Z,7864
2017-04-29T06:51:58.922Z,7856
2017-04-29T06:52:24.389Z,7820
2017-04-29T06:52:49.842Z,7768
2017-04-29T06:53:15.335Z,7664
2017-04-29T06:53:40.867Z,7536
2017-04-29T06:54:06.341Z,7404
2017-04-29T06:54:31.819Z,7264
2017-04-29T06:54:57.314Z,7112
2017-04-29T06:55:22.826Z,7008
2017-04-29T06:55:48.303Z,6944
2017-04-29T06:56:13.782Z,6856
2017-04-29T06:56:39.243Z,6728
2017-04-29T06:57:04.697Z,6536
2017-04-29T06:57:30.156Z,6316
2017-04-29T06:57:55.623Z,6072
2017-04-29T06:58:21.093Z,5828
2017-04-29T06:58:46.567Z,5620
2017-04-29T06:59:12.024Z,5480
2017-04-29T06:59:37.484Z,5352
2017-04-29T07:00:02.979Z,5184
2017-04-29T07:00:28.479Z,5016
2017-04-29T07:00:53.990Z,4872
2017-04-29T07:01:19.489Z,4752
2017-04-29T07:01:44.932Z,4648
2017-04-29T07:02:10.469Z,4548
2017-04-29T07:02:35.983Z,4508
2017-04-29T07:03:01.439Z,4488
2017-04-29T07:03:26.957Z,4488
2017-04-29T07:03:52.459Z,4524
2017-04-29T07:04:17.932Z,4532
2017-04-29T07:04:43.398Z,4524
2017-04-29T07:05:08.867Z,4524
2017-04-29T07:05:34.339Z,4536
2017-04-29T07:05:59.802Z,4564
2017-04-29T07:06:25.271Z,4612
2017-04-29T07:06:50.743Z,4624
2017-04-29T07:07:16.207Z,4680
2017-04-29T07:07:41.708Z,4768
2017-04-29T07:08:07.177Z,4872
2017-04-29T07:08:32.671Z,5016
2017-04-29T07:08:58.167Z,5144
2017-04-29T07:09:23.593Z,5424
2017-04-29T07:09:49.043Z,5276
2017-04-29T07:10:14.502Z,5276
2017-04-29T07:10:39.964Z,5392
2017-04-29T07:11:05.454Z,5504
2017-04-29T07:11:30.919Z,5560
2017-04-29T07:11:56.403Z,5520
2017-04-29T07:12:21.867Z,5484
2017-04-29T07:12:47.310Z,5440
2017-04-29T07:13:12.793Z,5440
2017-04-29T07:13:38.252Z,5540
2017-04-29T07:14:03.722Z,5412
2017-04-29T07:14:29.219Z,5496
2017-04-29T07:14:54.660Z,5372
2017-04-29T07:15:20.158Z,5240
2017-04-29T07:15:45.643Z,5216
2017-04-29T07:16:11.072Z,5308
2017-04-29T07:16:36.551Z,5252
2017-04-29T07:17:02.005Z,5216
2017-04-29T07:17:27.456Z,5256
2017-04-29T07:17:52.947Z,5288
2017-04-29T07:18:18.382Z,5188
2017-04-29T07:18:43.829Z,5212
2017-04-29T07:19:09.290Z,5272
2017-04-29T07:19:34.762Z,5316
2017-04-29T07:20:00.260Z,5296
2017-04-29T07:20:25.701Z,5360
2017-04-29T07:20:51.173Z,5528
2017-04-29T07:21:16.628Z,5736
2017-04-29T07:21:42.109Z,6000
2017-04-29T07:22:07.577Z,6508
2017-04-29T07:22:33.031Z,6704
2017-04-29T07:22:58.537Z,6944
2017-04-29T07:23:23.990Z,7240
2017-04-29T07:23:49.470Z,7152
2017-04-29T07:24:15.007Z,7296
2017-04-29T07:24:40.497Z,7552
2017-04-29T07:25:05.952Z,7848
2017-04-29T07:25:31.449Z,8236
2017-04-29T07:25:56.939Z,8480
2017-04-29T07:26:22.393Z,8868
2017-04-29T07:26:47.853Z,9232
2017-04-29T07:27:13.338Z,9516
2017-04-29T07:27:38.772Z,9880
2017-04-29T07:28:04.228Z,10212
2017-04-29T07:28:29.681Z,10568
2017-04-29T07:28:55.148Z,10828
2017-04-29T07:29:20.635Z,11092
2017-04-29T07:29:46.106Z,11104
2017-04-29T07:30:11.616Z,11128
2017-04-29T07:30:37.144Z,10964
2017-04-29T07:31:02.566Z,10840
2017-04-29T07:31:28.059Z,10768
2017-04-29T07:31:53.553Z,10600
2017-04-29T07:32:19.056Z,10420
2017-04-29T07:32:44.490Z,10216
2017-04-29T07:33:10.032Z,10116
2017-04-29T07:33:35.476Z,10008
2017-04-29T07:34:00.925Z,10212
2017-04-29T07:34:26.402Z,10292
2017-04-29T07:34:51.882Z,10384
2017-04-29T07:35:17.335Z,10556
2017-04-29T07:35:42.759Z,10624
2017-04-29T07:36:08.250Z,10544
2017-04-29T07:36:33.732Z,10312
2017-04-29T07:36:59.245Z,9772
2017-04-29T07:37:24.697Z,9032
2017-04-29T07:37:50.192Z,8524
2017-04-29T07:38:15.628Z,8588
2017-04-29T07:38:41.143Z,8880
2017-04-29T07:39:06.639Z,9188
2017-04-29T07:39:32.109Z,9168
2017-04-29T07:39:57.585Z,8860
2017-04-29T07:40:23.044Z,8464
2017-04-29T07:40:48.539Z,8296
2017-04-29T07:41:13.981Z,8212
2017-04-29T07:41:39.450Z,8232
2017-04-29T07:42:04.905Z,8296
2017-04-29T07:42:30.386Z,8420
2017-04-29T07:42:55.869Z,8572
2017-04-29T07:43:21.323Z,8844
2017-04-29T07:43:46.803Z,9168
2017-04-29T07:44:12.262Z,9340
2017-04-29T07:44:37.695Z,9564
2017-04-29T07:45:03.174Z,9736
2017-04-29T07:45:28.631Z,9820
2017-04-29T07:45:54.126Z,9848
2017-04-29T07:46:19.600Z,10036
2017-04-29T07:46:45.147Z,10072
2017-04-29T07:47:10.558Z,10064
2017-04-29T07:47:36.028Z,10072
2017-04-29T07:48:01.516Z,10160
2017-04-29T07:48:26.983Z,10108
2017-04-29T07:48:52.447Z,10084
2017-04-29T07:49:17.892Z,9980
2017-04-29T07:49:43.377Z,9892
2017-04-29T07:50:08.832Z,9924
2017-04-29T07:50:34.287Z,10028
2017-04-29T07:50:59.770Z,9860
2017-04-29T07:51:25.223Z,10040
2017-04-29T07:51:50.683Z,10136
2017-04-29T07:52:16.158Z,10204
2017-04-29T07:52:41.632Z,10180
2017-04-29T07:53:07.106Z,10172
2017-04-29T07:53:32.561Z,10224
2017-04-29T07:53:58.021Z,10416
2017-04-29T07:54:23.471Z,10740
2017-04-29T07:54:48.912Z,10944
2017-04-29T07:55:14.396Z,10648
2017-04-29T07:55:39.869Z,10852
2017-04-29T07:56:05.322Z,11120
2017-04-29T07:56:30.791Z,11224
2017-04-29T07:56:56.265Z,11452
2017-04-29T07:57:21.723Z,11760
2017-04-29T07:57:47.204Z,11856
2017-04-29T07:58:12.704Z,12300
2017-04-29T07:58:38.186Z,12464
2017-04-29T07:59:03.664Z,12564
2017-04-29T07:59:29.147Z,12296
2017-04-29T07:59:54.633Z,11768
2017-04-29T08:00:20.134Z,11464
2017-04-29T08:00:45.611Z,11144
2017-04-29T08:01:11.114Z,10736
2017-04-29T08:01:36.595Z,10416
2017-04-29T08:02:02.035Z,10144
2017-04-29T08:02:27.503Z,9732
2017-04-29T08:02:52.981Z,9620
2017-04-29T08:03:18.459Z,9640
2017-04-29T08:03:43.939Z,9628
2017-04-29T08:04:09.389Z,9664
2017-04-29T08:04:34.855Z,9712
2017-04-29T08:05:00.332Z,9736
2017-04-29T08:05:25.868Z,9880
2017-04-29T08:05:51.337Z,9956
2017-04-29T08:06:16.822Z,10004
2017-04-29T08:06:42.273Z,10144
2017-04-29T08:07:07.741Z,10168
2017-04-29T08:07:33.234Z,10040
2017-04-29T08:07:58.690Z,9528
2017-04-29T08:08:24.142Z,8588
2017-04-29T08:08:49.628Z,7920
2017-04-29T08:09:15.101Z,7604
2017-04-29T08:09:40.560Z,7432
2017-04-29T08:10:06.027Z,7360
2017-04-29T08:10:31.492Z,7304
2017-04-29T08:10:56.935Z,7472
2017-04-29T08:11:22.527Z,8004
2017-04-29T08:11:47.900Z,8344
2017-04-29T08:12:13.369Z,8488
2017-04-29T08:12:38.876Z,8880
2017-04-29T08:13:04.348Z,9108
2017-04-29T08:13:29.853Z,9188
2017-04-29T08:13:55.348Z,9296
2017-04-29T08:14:20.812Z,9492
2017-04-29T08:14:46.303Z,9784
2017-04-29T08:15:11.798Z,9964
2017-04-29T08:15:37.260Z,10596
2017-04-29T08:16:02.768Z,10992
2017-04-29T08:16:28.252Z,11552
2017-04-29T08:16:53.729Z,11956
2017-04-29T08:17:19.178Z,12324
2017-04-29T08:17:44.654Z,12796
2017-04-29T08:18:10.114Z,13276
2017-04-29T08:18:35.576Z,13700
2017-04-29T08:19:01.070Z,14068
2017-04-29T08:19:26.539Z,14484
2017-04-29T08:19:52.032Z,14908
2017-04-29T08:20:17.559Z,14988
2017-04-29T08:20:43.025Z,14876
2017-04-29T08:21:08.541Z,14412
2017-04-29T08:21:34.036Z,13708
2017-04-29T08:21:59.560Z,13124
2017-04-29T08:22:25.045Z,12796
2017-04-29T08:22:50.581Z,12848
2017-04-29T08:23:16.015Z,13040
2017-04-29T08:23:41.454Z,12892
2017-04-29T08:24:06.983Z,12060
2017-04-29T08:24:32.436Z,11012
2017-04-29T08:24:57.940Z,9920
2017-04-29T08:25:23.428Z,9220
2017-04-29T08:25:48.894Z,8836
2017-04-29T08:26:14.392Z,8504
2017-04-29T08:26:39.905Z,8092
2017-04-29T08:27:05.426Z,7612
2017-04-29T08:27:30.898Z,7316
2017-04-29T08:27:56.366Z,7132
2017-04-29T08:28:22.079Z,7044
2017-04-29T08:28:47.805Z,6940
2017-04-29T08:29:13.474Z,6748
2017-04-29T08:29:38.816Z,6544
2017-04-29T08:30:04.312Z,6304
2017-04-29T08:30:29.771Z,6148
2017-04-29T08:30:55.245Z,6032
2017-04-29T08:31:20.719Z,5928
2017-04-29T08:31:46.254Z,5920
2017-04-29T08:32:11.725Z,6108
2017-04-29T08:32:37.199Z,6424
2017-04-29T08:33:02.634Z,6848
2017-04-29T08:33:28.141Z,7352
2017-04-29T08:33:53.744Z,7852
2017-04-29T08:34:19.669Z,8364
2017-04-29T08:34:45.105Z,8860
2017-04-29T08:35:10.514Z,9264
2017-04-29T08:35:35.963Z,9716
2017-04-29T08:36:01.452Z,10164
2017-04-29T08:36:26.880Z,10616
2017-04-29T08:36:52.369Z,11068
2017-04-29T08:37:17.861Z,11508
2017-04-29T08:37:43.375Z,11968
2017-04-29T08:38:08.811Z,12428
2017-04-29T08:38:34.260Z,12920
2017-04-29T08:38:59.713Z,13380
2017-04-29T08:39:25.165Z,13684
2017-04-29T08:39:50.644Z,13848
2017-04-29T08:40:16.077Z,14060
2017-04-29T08:40:41.580Z,14404
2017-04-29T08:41:07.067Z,14756
2017-04-29T08:41:32.613Z,15028
2017-04-29T08:41:58.037Z,15188
2017-04-29T08:42:23.453Z,15096
2017-04-29T08:42:48.977Z,14972
2017-04-29T08:43:14.496Z,14896
2017-04-29T08:43:40.095Z,14892
2017-04-29T08:44:05.517Z,14964
2017-04-29T08:44:30.948Z,14944
2017-04-29T08:44:56.412Z,15060
2017-04-29T08:45:21.844Z,15188
2017-04-29T08:45:47.550Z,15160
2017-04-29T08:46:12.909Z,15168
2017-04-29T08:46:38.403Z,15264
2017-04-29T08:47:03.849Z,15296
2017-04-29T08:47:29.354Z,15344
2017-04-29T08:47:54.813Z,15456
2017-04-29T08:48:20.279Z,15536
2017-04-29T08:48:45.771Z,15652
2017-04-29T08:49:11.283Z,15576
2017-04-29T08:49:36.817Z,15688
2017-04-29T08:50:02.274Z,15808
2017-04-29T08:50:27.739Z,15872
2017-04-29T08:50:53.203Z,15884
2017-04-29T08:51:18.680Z,15912
2017-04-29T08:51:44.196Z,15992
2017-04-29T08:52:09.695Z,16120
2017-04-29T08:52:35.093Z,16180
2017-04-29T08:53:00.570Z,15992
2017-04-29T08:53:26.011Z,15636
2017-04-29T08:53:51.509Z,15220
2017-04-29T08:54:16.977Z,14756
2017-04-29T08:54:42.495Z,14212
2017-04-29T08:55:07.937Z,13632
2017-04-29T08:55:33.393Z,13292
2017-04-29T08:55:58.858Z,13040
2017-04-29T08:56:24.319Z,13016
2017-04-29T08:56:49.785Z,13036
2017-04-29T08:57:15.232Z,12900
2017-04-29T08:57:40.685Z,12488
2017-04-29T08:58:06.151Z,11988
2017-04-29T08:58:31.646Z,11708
2017-04-29T08:58:57.127Z,11812
2017-04-29T08:59:22.626Z,11892
2017-04-29T08:59:48.050Z,11800
2017-04-29T09:00:13.543Z,11748
2017-04-29T09:00:39.017Z,11656
2017-04-29T09:01:04.498Z,11356
2017-04-29T09:01:29.932Z,11064
2017-04-29T09:01:55.411Z,10756
2017-04-29T09:02:20.891Z,10532
2017-04-29T09:02:46.370Z,10556
2017-04-29T09:03:11.868Z,10772
2017-04-29T09:03:37.344Z,10936
2017-04-29T09:04:02.803Z,11052
2017-04-29T09:04:28.280Z,11132
2017-04-29T09:04:53.774Z,11144
2017-04-29T09:05:19.288Z,11132
2017-04-29T09:05:44.711Z,11168
2017-04-29T09:06:10.201Z,11248
2017-04-29T09:06:35.669Z,11380
2017-04-29T09:07:01.118Z,11540
2017-04-29T09:07:26.581Z,11696
2017-04-29T09:07:52.037Z,11872
2017-04-29T09:08:17.494Z,12072
2017-04-29T09:08:42.952Z,12260
2017-04-29T09:09:08.424Z,12356
2017-04-29T09:09:33.893Z,12268
2017-04-29T09:09:59.348Z,12096
2017-04-29T09:10:24.827Z,11980
2017-04-29T09:10:50.286Z,11976
2017-04-29T09:11:15.736Z,12064
2017-04-29T09:11:41.200Z,12208
2017-04-29T09:12:06.675Z,12400
2017-04-29T09:12:32.119Z,12644
2017-04-29T09:12:57.571Z,12900
2017-04-29T09:13:23.021Z,13136
2017-04-29T09:13:48.494Z,13316
2017-04-29T09:14:13.976Z,13444
2017-04-29T09:14:39.412Z,13560
2017-04-29T09:15:04.906Z,13668
2017-04-29T09:15:30.365Z,13752
2017-04-29T09:15:55.836Z,13872
2017-04-29T09:16:21.275Z,13892
2017-04-29T09:16:46.749Z,13712
2017-04-29T09:17:12.212Z,13344
2017-04-29T09:17:37.819Z,13124
2017-04-29T09:18:03.169Z,12952
2017-04-29T09:18:28.641Z,12704
2017-04-29T09:18:54.093Z,12356
2017-04-29T09:19:19.581Z,11932
2017-04-29T09:19:45.040Z,11524
2017-04-29T09:20:10.510Z,11360
2017-04-29T09:20:35.950Z,11292
2017-04-29T09:21:01.417Z,11312
2017-04-29T09:21:26.862Z,11256
2017-04-29T09:21:52.381Z,11140
2017-04-29T09:22:17.917Z,10984
2017-04-29T09:22:43.355Z,10868
2017-04-29T09:23:08.820Z,10832
2017-04-29T09:23:34.322Z,10724
2017-04-29T09:23:59.773Z,10480
2017-04-29T09:24:25.254Z,10120
2017-04-29T09:24:50.709Z,9896
2017-04-29T09:25:16.165Z,9424
2017-04-29T09:25:41.657Z,9152
2017-04-29T09:26:07.139Z,8552
2017-04-29T09:26:32.612Z,8348
2017-04-29T09:26:58.104Z,8292
2017-04-29T09:27:23.586Z,8232
2017-04-29T09:27:49.065Z,8124
2017-04-29T09:28:14.503Z,8132
2017-04-29T09:28:39.959Z,8164
2017-04-29T09:29:05.420Z,7716
2017-04-29T09:29:30.910Z,7420
2017-04-29T09:29:56.344Z,7128
2017-04-29T09:30:21.885Z,6812
2017-04-29T09:30:47.367Z,6368
2017-04-29T09:31:12.854Z,5968
2017-04-29T09:31:38.334Z,5800
2017-04-29T09:32:03.821Z,5676
2017-04-29T09:32:29.295Z,5368
2017-04-29T09:32:54.812Z,5236
2017-04-29T09:33:20.289Z,5184
2017-04-29T09:33:45.773Z,5044
2017-04-29T09:34:11.300Z,5064
2017-04-29T09:34:36.754Z,5088
2017-04-29T09:35:02.226Z,4984
2017-04-29T09:35:27.674Z,5068
2017-04-29T09:35:53.134Z,4936
2017-04-29T09:36:18.602Z,5060
2017-04-29T09:36:44.334Z,5048
2017-04-29T09:37:09.843Z,5064
2017-04-29T09:37:35.330Z,5040
2017-04-29T09:38:00.773Z,5004
2017-04-29T09:38:26.300Z,4996